Time;durP1;ratioP1;P1;durP2;ratioP2;P2;SDS_P1;SDS_P2;PMS_P1;PMS_P2;Temp;Humidity;BMP_temperature;BMP_pressure;BME280_temperature;BME280_humidity;BME280_pressure;Samples;Min_cycle;Max_cycle;Signal;HPM_P1;HPM_P2
2022/11/09 00:00:05;;;;;;;;;22.50;19.75;;;;;15.45;72.57;101653.19;146620;644;46020;-77
2022/11/09 00:03:11;;;;;;;;;23.75;20.75;;;;;15.43;72.50;101650.53;146613;727;46016;-77
2022/11/09 00:06:20;;;;;;;;;19.00;18.00;;;;;15.42;72.21;101655.69;146620;564;46010;-76
2022/11/09 00:09:15;;;;;;;;;26.25;22.50;;;;;15.44;71.87;101652.31;146618;571;45016;-76
2022/11/09 00:12:14;;;;;;;;;24.75;22.00;;;;;15.49;72.84;101660.37;146616;608;45020;-73
2022/11/09 00:15:07;;;;;;;;;29.50;26.75;;;;;14.29;72.51;101453.66;146612;566;46034;-74
2022/11/09 00:18:03;;;;;;;;;30.75;28.00;;;;;15.51;72.52;101663.06;146613;575;46010;-74
2022/11/09 00:20:55;;;;;;;;;42.75;34.75;;;;;15.52;71.90;101663.13;146614;564;46014;-74
2022/11/09 00:23:48;;;;;;;;;38.00;33.25;;;;;15.52;71.62;101655.31;146616;599;46020;-73
2022/11/09 00:26:40;;;;;;;;;37.25;31.25;;;;;15.55;71.89;101654.56;146614;614;46012;-74
2022/11/09 00:29:32;;;;;;;;;33.00;29.00;;;;;15.59;71.89;101654.75;146623;611;45021;-71
2022/11/09 00:32:24;;;;;;;;;32.75;29.00;;;;;15.60;71.81;101651.28;146613;660;46014;-75
2022/11/09 00:35:21;;;;;;;;;40.50;31.75;;;;;15.62;71.35;101654.00;146618;573;46020;-76
2022/11/09 00:38:13;;;;;;;;;58.00;45.25;;;;;15.60;71.20;101642.56;146613;579;46016;-77
2022/11/09 00:41:13;;;;;;;;;45.00;34.50;;;;;15.55;71.30;101644.97;146613;647;46020;-76
2022/11/09 00:44:12;;;;;;;;;36.50;31.00;;;;;15.50;71.14;101641.25;146615;564;46014;-77
2022/11/09 00:47:04;;;;;;;;;39.25;34.00;;;;;15.45;71.00;101638.44;146618;569;46010;-77
2022/11/09 00:50:00;;;;;;;;;35.00;30.50;;;;;15.41;71.48;101633.87;146615;579;46015;-77
2022/11/09 00:52:55;;;;;;;;;37.00;31.75;;;;;15.37;71.02;101644.13;146612;653;47010;-77
2022/11/09 00:56:01;;;;;;;;;34.25;29.00;;;;;15.34;71.56;101639.66;146615;577;46016;-77
2022/11/09 00:59:00;;;;;;;;;29.25;27.25;;;;;15.31;71.47;101638.62;146618;631;46021;-77
2022/11/09 01:02:03;;;;;;;;;34.00;29.25;;;;;15.32;71.43;101632.56;146615;668;47014;-79
2022/11/09 01:04:58;;;;;;;;;30.75;27.00;;;;;15.31;72.05;101636.00;146620;597;46011;-80
2022/11/09 01:08:04;;;;;;;;;29.50;24.50;;;;;15.32;71.67;101640.41;146616;645;46016;-80
2022/11/09 01:11:07;;;;;;;;;23.00;23.00;;;;;15.28;71.28;101631.53;146617;573;47010;-79
2022/11/09 01:14:24;;;;;;;;;29.75;26.00;;;;;12.48;70.88;101152.13;146617;564;46916;-81
2022/11/09 01:17:22;;;;;;;;;36.25;29.50;;;;;15.16;71.28;101624.00;146620;621;46036;-81
2022/11/09 01:20:25;;;;;;;;;34.00;28.00;;;;;15.09;71.35;101618.44;146615;589;46915;-81
2022/11/09 01:23:21;;;;;;;;;27.50;25.50;;;;;15.04;71.61;101622.53;146615;658;47010;-78
2022/11/09 01:26:20;;;;;;;;;28.50;28.25;;;;;14.97;72.03;101617.03;146617;572;46026;-79
2022/11/09 01:29:12;;;;;;;;;33.75;30.50;;;;;13.43;72.16;101352.16;146619;592;47010;-73
2022/11/09 01:32:04;;;;;;;;;37.25;29.75;;;;;14.96;72.41;101617.84;146614;606;46016;-81
2022/11/09 01:34:58;;;;;;;;;32.00;30.75;;;;;14.98;72.66;101613.59;146615;604;47010;-81
2022/11/09 01:37:50;;;;;;;;;35.00;31.00;;;;;14.99;72.83;101615.38;146612;585;47016;-78
2022/11/09 01:41:03;;;;;;;;;38.75;31.00;;;;;12.29;71.85;101139.03;146620;657;46029;-81
2022/11/09 01:44:28;;;;;;;;;35.50;30.75;;;;;15.04;72.29;101612.97;146618;565;45019;-81
2022/11/09 01:47:43;;;;;;;;;38.25;32.25;;;;;15.09;73.24;101621.94;146617;614;48014;-77
2022/11/09 01:51:06;;;;;;;;;42.00;32.25;;;;;12.65;72.76;101185.09;146617;586;46014;-79
2022/11/09 01:54:05;;;;;;;;;30.75;28.00;;;;;15.16;72.82;101621.41;146618;747;46020;-79
2022/11/09 01:57:21;;;;;;;;;30.75;27.25;;;;;15.19;72.49;101618.94;146617;597;46013;-80
2022/11/09 02:00:40;;;;;;;;;34.75;30.50;;;;;15.23;73.07;101628.72;146622;565;46020;-80
2022/11/09 02:04:01;;;;;;;;;26.75;26.00;;;;;15.22;72.48;101623.41;146615;566;46016;-78
2022/11/09 02:07:10;;;;;;;;;30.50;28.75;;;;;15.22;72.57;101628.62;146620;581;46014;-78
2022/11/09 02:10:38;;;;;;;;;30.50;26.50;;;;;15.22;72.17;101628.62;146615;597;47012;-79
2022/11/09 02:13:35;;;;;;;;;38.75;32.25;;;;;15.23;72.83;101633.03;146619;564;46010;-81
2022/11/09 02:16:34;;;;;;;;;36.75;30.00;;;;;15.20;72.27;101625.97;146613;565;46014;-79
2022/11/09 02:19:28;;;;;;;;;43.00;32.25;;;;;15.23;72.87;101638.25;146618;587;46021;-81
2022/11/09 02:22:41;;;;;;;;;34.00;31.50;;;;;15.24;72.89;101633.09;146616;590;46016;-78
2022/11/09 02:25:46;;;;;;;;;36.00;30.25;;;;;15.27;72.58;101628.88;146618;605;47015;-75
2022/11/09 02:28:40;;;;;;;;;36.75;32.00;;;;;15.29;73.12;101624.56;146616;650;46014;-75
2022/11/09 02:31:56;;;;;;;;;37.50;31.00;;;;;12.57;72.46;101156.91;146622;597;46020;-75
2022/11/09 02:34:48;;;;;;;;;39.25;30.00;;;;;15.33;72.64;101627.44;146615;601;46017;-74
2022/11/09 02:37:54;;;;;;;;;28.50;24.50;;;;;15.36;72.48;101627.56;146618;577;46020;-74
2022/11/09 02:40:52;;;;;;;;;34.50;29.75;;;;;15.37;72.94;101631.06;146618;589;46013;-71
2022/11/09 02:43:48;;;;;;;;;37.50;31.50;;;;;15.36;72.64;101638.03;146621;587;45021;-72
2022/11/09 02:46:44;;;;;;;;;37.00;31.50;;;;;15.28;72.35;101634.16;146616;569;46016;-71
2022/11/09 02:49:36;;;;;;;;;33.50;29.00;;;;;15.29;72.45;101630.69;146619;651;46020;-71
2022/11/09 02:52:44;;;;;;;;;28.00;27.25;;;;;15.28;73.09;101636.75;146615;607;46016;-71
2022/11/09 02:55:38;;;;;;;;;38.00;29.75;;;;;15.28;73.06;101636.75;146620;653;46010;-72
2022/11/09 02:58:39;;;;;;;;;33.75;29.00;;;;;15.25;73.18;101637.50;146614;582;46016;-72
2022/11/09 03:01:37;;;;;;;;;37.00;30.25;;;;;15.22;73.68;101636.47;146618;569;46020;-72
2022/11/09 03:04:43;;;;;;;;;;;;;;;;;;;;;
2022/11/09 03:07:46;;;;;;;;;34.50;29.25;;;;;15.23;74.05;101635.62;146620;607;46020;-74
2022/11/09 03:10:43;;;;;;;;;36.00;29.00;;;;;15.21;74.01;101635.56;146613;659;46916;-74
2022/11/09 03:13:49;;;;;;;;;33.00;31.25;;;;;15.19;73.76;101633.72;146619;588;46020;-73
2022/11/09 03:16:50;;;;;;;;;32.75;30.50;;;;;15.16;73.87;101634.47;146616;660;46016;-74
2022/11/09 03:19:45;;;;;;;;;37.25;31.75;;;;;15.13;74.55;101641.25;146620;574;46010;-74
2022/11/09 03:22:39;;;;;;;;;28.75;26.00;;;;;15.12;74.59;101636.87;146608;566;47914;-75
2022/11/09 03:25:39;;;;;;;;;38.00;30.00;;;;;15.13;74.63;101643.87;146621;564;46015;-74
2022/11/09 03:28:37;;;;;;;;;40.50;33.00;;;;;15.11;74.29;101643.81;146615;612;46012;-74
2022/11/09 03:31:42;;;;;;;;;39.75;32.00;;;;;15.09;74.62;101653.28;146621;611;45020;-74
2022/11/09 03:34:38;;;;;;;;;35.75;30.75;;;;;15.06;74.39;101647.91;146615;570;46017;-71
2022/11/09 03:37:43;;;;;;;;;39.50;33.50;;;;;15.02;75.04;101646.00;146617;579;46020;-71
2022/11/09 03:40:38;;;;;;;;;38.25;34.25;;;;;15.01;75.07;101649.41;146618;634;46012;-72
2022/11/09 03:43:33;;;;;;;;;39.75;32.00;;;;;14.97;75.21;101642.25;146618;601;46020;-75
2022/11/09 03:46:33;;;;;;;;;34.25;31.00;;;;;14.96;75.35;101650.91;146616;634;46016;-75
2022/11/09 03:49:29;;;;;;;;;41.50;31.50;;;;;14.95;75.32;101654.31;146615;590;46021;-77
2022/11/09 03:52:33;;;;;;;;;35.50;30.00;;;;;14.96;75.15;101653.53;146614;684;46016;-77
2022/11/09 03:55:29;;;;;;;;;30.25;27.75;;;;;14.96;75.09;101658.75;146617;570;46020;-77
2022/11/09 03:58:26;;;;;;;;;32.50;29.25;;;;;14.93;75.14;101663.81;146604;572;47913;-76
2022/11/09 04:01:25;;;;;;;;;30.50;28.25;;;;;14.87;75.25;101659.19;146620;582;46010;-76
2022/11/09 04:04:25;;;;;;;;;31.25;29.50;;;;;14.81;75.71;101658.00;146613;573;46017;-76
2022/11/09 04:07:18;;;;;;;;;32.25;26.75;;;;;14.76;76.04;101657.75;146620;638;46020;-79
2022/11/09 04:10:13;;;;;;;;;35.75;31.00;;;;;14.69;75.89;101658.28;146613;640;45035;-78
2022/11/09 04:13:09;;;;;;;;;30.75;29.00;;;;;14.52;76.48;101637.47;146621;665;46020;-77
2022/11/09 04:16:16;;;;;;;;;31.25;27.00;;;;;11.86;75.37;101170.59;146612;596;46016;-77
2022/11/09 04:19:13;;;;;;;;;40.50;30.75;;;;;14.61;76.86;101662.22;146618;627;46011;-77
2022/11/09 04:22:08;;;;;;;;;29.75;28.75;;;;;14.57;76.75;101661.19;146611;570;46016;-77
2022/11/09 04:25:00;;;;;;;;;33.00;29.50;;;;;14.53;77.10;101662.75;146616;627;46010;-77
2022/11/09 04:28:14;;;;;;;;;28.75;27.50;;;;;14.52;77.06;101660.06;146611;601;46017;-75
2022/11/09 04:31:10;;;;;;;;;36.25;28.50;;;;;14.51;77.52;101661.75;146621;628;46010;-74
2022/11/09 04:34:02;;;;;;;;;28.75;25.25;;;;;14.52;77.14;101660.06;146612;599;46017;-75
2022/11/09 04:37:07;;;;;;;;;28.75;26.00;;;;;11.74;76.86;101171.69;146615;623;46020;-73
2022/11/09 04:40:05;;;;;;;;;29.00;26.00;;;;;14.62;77.00;101667.53;146616;571;46030;-72
2022/11/09 04:43:10;;;;;;;;;37.75;31.50;;;;;11.93;76.52;101177.88;146620;590;46010;-72
2022/11/09 04:46:09;;;;;;;;;33.75;29.75;;;;;14.70;77.37;101666.22;146607;602;47914;-73
2022/11/09 04:49:12;;;;;;;;;27.25;24.75;;;;;14.71;77.00;101664.50;146619;570;46010;-72
2022/11/09 04:52:13;;;;;;;;;30.75;27.75;;;;;14.70;76.48;101673.13;146608;569;46030;-73
2022/11/09 04:55:19;;;;;;;;;30.50;29.00;;;;;12.08;76.00;101212.47;146618;589;46010;-76
2022/11/09 04:58:21;;;;;;;;;32.25;28.25;;;;;14.67;76.17;101675.56;146618;569;45017;-76
2022/11/09 05:01:26;;;;;;;;;32.75;30.25;;;;;14.04;75.96;101578.47;146616;691;49010;-73
2022/11/09 05:04:21;;;;;;;;;34.75;30.25;;;;;14.57;76.71;101678.56;146618;603;46013;-73
2022/11/09 05:07:26;;;;;;;;;35.75;30.25;;;;;14.53;76.29;101681.00;146619;604;46031;-74
2022/11/09 05:10:30;;;;;;;;;34.50;29.00;;;;;14.52;76.85;101683.56;146614;596;46017;-75
2022/11/09 05:13:22;;;;;;;;;33.00;29.50;;;;;14.47;76.82;101685.88;146620;589;46020;-77
2022/11/09 05:16:24;;;;;;;;;29.25;28.50;;;;;14.43;76.98;101691.78;146615;571;46012;-76
2022/11/09 05:19:27;;;;;;;;;35.00;30.50;;;;;14.41;76.74;101696.00;146620;633;46014;-78
2022/11/09 05:25:49;;;;;;;;;33.50;29.50;;;;;14.37;76.70;101698.41;146620;595;46012;-75
2022/11/09 05:28:44;;;;;;;;;38.25;33.50;;;;;14.39;77.07;101697.66;146617;650;46016;-76
2022/11/09 05:31:46;;;;;;;;;34.50;29.50;;;;;14.42;76.53;101705.63;146619;619;48010;-76
2022/11/09 05:34:45;;;;;;;;;44.00;34.00;;;;;14.40;77.63;101702.06;146616;566;47012;-76
2022/11/09 05:37:58;;;;;;;;;43.75;34.00;;;;;14.39;77.01;101708.09;146618;672;46020;-75
2022/11/09 05:40:55;;;;;;;;;40.25;32.75;;;;;14.45;77.51;101712.72;146615;625;46012;-70
2022/11/09 05:43:58;;;;;;;;;37.50;32.25;;;;;14.57;77.71;101718.59;146620;620;46010;-72
2022/11/09 05:46:54;;;;;;;;;45.00;33.25;;;;;14.67;77.55;101715.66;146615;588;46014;-75
2022/11/09 05:49:49;;;;;;;;;39.00;33.00;;;;;14.77;77.54;101715.28;146622;596;46014;-74
2022/11/09 05:53:00;;;;;;;;;46.25;35.50;;;;;14.92;77.30;101725.63;146618;618;46012;-75
2022/11/09 05:56:22;;;;;;;;;44.50;34.75;;;;;15.32;78.43;101724.91;146612;644;47010;-75
2022/11/09 05:59:17;;;;;;;;;45.25;36.50;;;;;15.93;78.70;101721.69;146618;577;46012;-75
2022/11/09 06:02:18;;;;;;;;;44.75;36.75;;;;;16.55;76.59;101720.94;146619;618;46014;-75
2022/11/09 06:05:19;;;;;;;;;38.25;32.50;;;;;17.16;74.66;101716.47;146614;629;48014;-75
2022/11/09 06:08:20;;;;;;;;;44.50;35.50;;;;;17.81;72.43;101733.03;146618;671;46020;-75
2022/11/09 06:11:41;;;;;;;;;38.00;32.50;;;;;15.84;70.15;101277.59;146617;645;46016;-77
2022/11/09 06:14:33;;;;;;;;;45.00;36.75;;;;;19.06;68.57;101736.59;146621;649;46020;-75
2022/11/09 06:17:27;;;;;;;;;44.75;36.25;;;;;19.59;67.27;101737.41;146617;627;46017;-73
2022/11/09 06:20:25;;;;;;;;;52.00;40.75;;;;;20.06;65.85;101746.75;146621;601;46020;-73
2022/11/09 06:23:33;;;;;;;;;52.75;41.25;;;;;20.49;64.36;101757.56;146610;620;47914;-73
2022/11/09 06:26:27;;;;;;;;;47.50;38.50;;;;;20.84;62.10;101749.72;146619;613;46014;-73
2022/11/09 06:29:29;;;;;;;;;50.75;41.50;;;;;20.94;60.46;101760.56;146618;672;46016;-73
2022/11/09 06:32:24;;;;;;;;;50.75;41.00;;;;;20.82;60.15;101754.97;146619;570;46010;-73
2022/11/09 06:35:24;;;;;;;;;49.75;41.00;;;;;20.62;59.83;101764.09;146616;679;46016;-73
2022/11/09 06:38:18;;;;;;;;;51.00;40.75;;;;;20.37;60.41;101757.22;146621;569;46021;-71
2022/11/09 06:41:15;;;;;;;;;50.75;41.50;;;;;20.03;60.89;101751.00;146616;577;46016;-76
2022/11/09 06:44:20;;;;;;;;;;;;;;;;;;;;;
2022/11/09 06:47:18;;;;;;;;;49.00;41.25;;;;;19.18;63.37;101759.78;146618;564;46013;-77
2022/11/09 06:50:13;;;;;;;;;53.25;42.00;;;;;18.89;64.46;101754.44;146620;634;46010;-81
2022/11/09 06:53:10;;;;;;;;;49.75;41.50;;;;;18.72;65.87;101753.81;146616;614;46024;-80
2022/11/09 06:56:14;;;;;;;;;51.25;41.75;;;;;18.67;65.37;101758.03;146619;581;46021;-83
2022/11/09 06:59:17;;;;;;;;;56.50;43.00;;;;;18.59;65.81;101755.13;146615;602;46016;-82
2022/11/09 07:02:12;;;;;;;;;51.25;41.25;;;;;18.51;66.46;101755.72;146618;618;45021;-83
2022/11/09 07:05:04;;;;;;;;;50.50;41.00;;;;;18.43;66.76;101753.69;146616;569;46016;-80
2022/11/09 07:07:56;;;;;;;;;56.50;43.00;;;;;18.11;67.47;101705.31;146620;582;46010;-78
2022/11/09 07:10:48;;;;;;;;;54.00;42.00;;;;;18.39;67.22;101753.56;146616;604;46016;-81
2022/11/09 07:13:44;;;;;;;;;51.50;42.00;;;;;18.44;67.54;101755.50;146618;604;46020;-80
2022/11/09 07:16:36;;;;;;;;;52.75;42.00;;;;;18.56;67.99;101757.66;146614;627;46013;-76
2022/11/09 07:19:28;;;;;;;;;54.50;43.00;;;;;18.71;68.00;101757.31;146617;720;46010;-78
2022/11/09 07:22:21;;;;;;;;;52.00;42.00;;;;;18.86;67.15;101759.59;146614;577;46016;-77
2022/11/09 07:25:21;;;;;;;;;51.75;42.00;;;;;18.93;65.96;101751.06;146617;642;46010;-77
2022/11/09 07:28:24;;;;;;;;;51.75;41.75;;;;;16.49;66.67;101330.62;146614;613;46016;-74
2022/11/09 07:31:43;;;;;;;;;50.50;39.25;;;;;16.70;66.41;101359.31;146618;582;46014;-73
2022/11/09 07:34:46;;;;;;;;;54.25;42.25;;;;;19.10;65.64;101755.16;146612;592;46016;-72
2022/11/09 07:37:59;;;;;;;;;49.00;38.75;;;;;16.75;66.42;101330.66;146617;592;46021;-73
2022/11/09 07:40:55;;;;;;;;;50.75;40.75;;;;;19.35;65.39;101763.84;146612;599;46033;-83
2022/11/09 07:43:50;;;;;;;;;51.25;41.50;;;;;19.29;66.74;101722.47;146617;883;46010;-77
2022/11/09 07:46:45;;;;;;;;;53.00;41.00;;;;;19.73;64.67;101765.06;146616;572;46017;-75
2022/11/09 07:49:43;;;;;;;;;52.25;40.75;;;;;19.91;64.76;101758.59;146610;665;46917;-73
2022/11/09 07:52:50;;;;;;;;;53.50;41.00;;;;;19.99;63.54;101755.28;146615;570;46017;-72
2022/11/09 07:56:02;;;;;;;;;49.50;38.25;;;;;20.04;63.78;101761.59;146619;614;46020;-71
2022/11/09 07:58:57;;;;;;;;;50.75;40.25;;;;;20.19;63.19;101758.53;146611;570;46914;-81
2022/11/09 08:01:52;;;;;;;;;48.25;40.00;;;;;20.20;63.60;101757.66;146616;613;46020;-82
2022/11/09 08:04:49;;;;;;;;;33.75;29.50;;;;;20.32;64.48;101762.37;146615;650;46012;-77
2022/11/09 08:07:51;;;;;;;;;44.75;34.00;;;;;20.49;63.70;101760.22;146620;604;46010;-76
2022/11/09 08:10:51;;;;;;;;;42.50;35.75;;;;;20.69;63.69;101766.06;146613;621;46016;-71
2022/11/09 08:13:48;;;;;;;;;48.75;38.25;;;;;20.87;62.63;101761.28;146619;565;46020;-74
2022/11/09 08:16:45;;;;;;;;;42.25;35.50;;;;;21.00;63.43;101759.84;146611;652;46012;-74
2022/11/09 08:19:47;;;;;;;;;51.25;38.75;;;;;21.17;62.58;101755.84;146616;633;46010;-70
2022/11/09 08:22:58;;;;;;;;;53.50;43.00;;;;;21.27;62.27;101756.94;146616;579;46017;-73
2022/11/09 08:25:52;;;;;;;;;44.00;35.75;;;;;21.30;62.04;101758.78;146614;608;46020;-74
2022/11/09 08:28:58;;;;;;;;;44.25;38.00;;;;;21.31;61.15;101761.47;146608;564;47012;-72
2022/11/09 08:32:09;;;;;;;;;45.75;37.50;;;;;21.34;61.96;101753.62;146613;622;46010;-74
2022/11/09 08:35:09;;;;;;;;;43.50;34.75;;;;;21.51;62.52;101756.69;146614;657;46014;-74
2022/11/09 08:38:09;;;;;;;;;44.75;36.75;;;;;21.72;60.30;101761.56;146613;695;46010;-73
2022/11/09 08:41:15;;;;;;;;;43.75;34.25;;;;;19.40;61.15;101346.69;146611;571;46016;-74
2022/11/09 08:44:13;;;;;;;;;42.25;34.00;;;;;21.87;61.41;101764.53;146615;572;46021;-73
2022/11/09 08:47:05;;;;;;;;;50.50;41.75;;;;;22.02;59.81;101758.66;146613;613;46033;-73
2022/11/09 08:49:59;;;;;;;;;52.75;41.50;;;;;22.09;59.51;101757.06;146621;569;46010;-74
2022/11/09 08:53:01;;;;;;;;;75.75;68.75;;;;;22.00;60.36;101755.13;146616;581;46013;-73
2022/11/09 08:56:00;;;;;;;;;104.33;94.00;;;;;21.88;59.99;101765.41;146620;591;45026;-74
2022/11/09 08:59:05;;;;;;;;;94.00;83.33;;;;;21.70;61.17;101759.72;146615;634;47012;-73
2022/11/09 09:01:57;;;;;;;;;72.75;60.00;;;;;21.71;60.66;101753.59;146616;564;46010;-72
2022/11/09 09:04:52;;;;;;;;;62.75;47.00;;;;;21.76;60.57;101757.22;146615;636;46012;-73
2022/11/09 09:07:54;;;;;;;;;52.75;41.25;;;;;21.79;60.19;101757.28;146618;575;47010;-71
2022/11/09 09:10:48;;;;;;;;;42.75;37.00;;;;;21.68;60.34;101754.41;146615;613;46915;-73
2022/11/09 09:13:44;;;;;;;;;43.75;36.50;;;;;21.50;60.71;101751.38;146616;637;46916;-74
2022/11/09 09:16:36;;;;;;;;;45.50;36.25;;;;;21.32;61.53;101757.06;146614;590;46016;-72
2022/11/09 09:19:31;;;;;;;;;46.50;38.25;;;;;21.19;61.73;101762.06;146615;798;46020;-71
2022/11/09 09:22:23;;;;;;;;;46.25;38.25;;;;;21.14;61.76;101760.16;146612;638;46017;-71
2022/11/09 09:25:19;;;;;;;;;48.00;37.25;;;;;21.07;61.44;101761.75;146615;644;45020;-72
2022/11/09 09:28:12;;;;;;;;;52.50;40.00;;;;;21.02;62.78;101757.22;146612;591;46015;-72
2022/11/09 09:31:20;;;;;;;;;49.25;39.00;;;;;21.08;62.14;101758.25;146612;607;46021;-72
2022/11/09 09:34:12;;;;;;;;;46.00;35.25;;;;;21.17;61.87;101747.94;146609;600;47016;-70
2022/11/09 09:37:10;;;;;;;;;44.75;36.75;;;;;21.32;60.79;101747.41;146614;628;46010;-72
2022/11/09 09:40:26;;;;;;;;;42.50;35.75;;;;;21.50;60.93;101741.72;146611;650;46016;-71
2022/11/09 09:43:29;;;;;;;;;46.00;37.25;;;;;21.59;59.85;101738.41;146618;590;46021;-71
2022/11/09 09:47:03;;;;;;;;;44.25;35.75;;;;;21.66;60.47;101743.81;146612;615;46915;-71
2022/11/09 09:50:29;;;;;;;;;45.00;36.25;;;;;19.44;59.41;101338.06;146615;579;46010;-70
2022/11/09 09:53:51;;;;;;;;;40.50;33.25;;;;;19.31;57.72;101322.81;146613;571;46016;-69
2022/11/09 09:56:55;;;;;;;;;47.00;37.75;;;;;21.48;58.87;101727.59;146617;578;46020;-71
2022/11/09 10:00:02;;;;;;;;;40.75;35.25;;;;;21.33;60.34;101725.44;146616;572;46014;-71
2022/11/09 10:03:01;;;;;;;;;39.00;33.50;;;;;21.23;58.82;101724.34;146620;563;45020;-71
2022/11/09 10:06:36;;;;;;;;;45.25;34.75;;;;;21.21;60.21;101702.34;146615;739;46014;-71
2022/11/09 10:09:57;;;;;;;;;40.50;34.00;;;;;21.17;59.58;101713.66;146618;627;46020;-71
2022/11/09 10:13:32;;;;;;;;;46.50;37.25;;;;;18.72;59.83;101296.69;146614;571;46018;-70
2022/11/09 10:17:05;;;;;;;;;39.50;32.75;;;;;21.06;59.65;101711.59;146617;581;46020;-70
2022/11/09 10:20:44;;;;;;;;;39.50;31.25;;;;;21.13;58.92;101701.25;146615;645;46017;-70
2022/11/09 10:24:25;;;;;;;;;36.00;31.00;;;;;18.79;60.13;101274.16;146616;670;46020;-71
2022/11/09 10:27:46;;;;;;;;;;;;;;;;;;;;;
2022/11/09 10:30:49;;;;;;;;;40.25;33.00;;;;;21.14;58.63;101692.47;146617;575;46010;-71
2022/11/09 10:33:46;;;;;;;;;33.25;30.75;;;;;21.03;58.75;101680.81;146615;610;46016;-71
2022/11/09 10:37:12;;;;;;;;;38.75;31.00;;;;;21.06;58.05;101687.87;146618;585;46014;-69
2022/11/09 10:40:47;;;;;;;;;35.50;31.25;;;;;20.96;58.85;101687.66;146616;602;46016;-71
2022/11/09 10:43:48;;;;;;;;;39.00;32.50;;;;;20.92;59.01;101680.53;146619;572;46010;-70
2022/11/09 10:47:10;;;;;;;;;37.00;31.25;;;;;20.95;59.83;101674.44;146613;577;46016;-71
2022/11/09 10:50:35;;;;;;;;;38.25;31.00;;;;;21.05;59.60;101686.09;146619;582;46012;-70
2022/11/09 10:53:40;;;;;;;;;35.25;30.50;;;;;21.09;58.39;101680.94;146614;658;46012;-70
2022/11/09 10:56:46;;;;;;;;;34.25;30.25;;;;;21.12;58.35;101677.47;146618;629;46010;-70
2022/11/09 11:00:10;;;;;;;;;34.00;29.75;;;;;21.17;58.47;101670.56;146614;570;46014;-70
2022/11/09 11:03:23;;;;;;;;;33.50;29.75;;;;;21.21;58.84;101664.50;146617;675;46020;-72
2022/11/09 11:06:36;;;;;;;;;33.25;30.25;;;;;21.23;58.59;101665.44;146616;602;47012;-72
2022/11/09 11:09:44;;;;;;;;;35.75;28.50;;;;;21.26;57.65;101664.63;146619;611;46020;-71
2022/11/09 11:12:43;;;;;;;;;36.25;31.25;;;;;21.28;57.35;101661.16;146617;589;46017;-71
2022/11/09 11:15:50;;;;;;;;;35.50;30.00;;;;;21.25;57.26;101657.56;146618;654;46010;-71
2022/11/09 11:19:02;;;;;;;;;;;;;;;;;;;;;
2022/11/09 11:22:36;;;;;;;;;28.75;27.25;;;;;21.07;57.78;101652.75;146619;579;46020;-70
2022/11/09 11:25:34;;;;;;;;;35.50;30.25;;;;;21.03;57.38;101646.53;146615;571;46012;-71
2022/11/09 11:28:55;;;;;;;;;34.00;29.75;;;;;18.36;60.10;101181.94;146610;610;48011;-73
2022/11/09 11:31:56;;;;;;;;;32.00;29.75;;;;;21.51;58.28;101639.69;146612;655;48012;-72
2022/11/09 11:34:55;;;;;;;;;33.00;30.00;;;;;21.72;55.17;101637.50;146617;602;47010;-70
2022/11/09 11:38:47;;;;;;;;;30.75;30.00;;;;;19.38;56.83;101219.56;146614;588;46915;-71
2022/11/09 11:42:16;;;;;;;;;36.25;30.50;;;;;21.82;57.42;101630.63;146618;655;46021;-71
2022/11/09 11:45:58;;;;;;;;;32.25;29.50;;;;;19.82;57.97;101243.37;146615;697;46016;-71
2022/11/09 11:49:34;;;;;;;;;34.50;30.00;;;;;20.03;57.13;101238.56;146616;584;46020;-72
2022/11/09 11:52:58;;;;;;;;;30.75;28.75;;;;;22.28;55.97;101613.94;146615;604;46016;-70
2022/11/09 11:56:31;;;;;;;;;33.75;28.75;;;;;22.22;56.58;101621.75;146615;652;46010;-72
2022/11/09 11:59:57;;;;;;;;;30.50;27.50;;;;;22.24;56.33;101620.03;146615;604;46016;-73
2022/11/09 12:03:24;;;;;;;;;30.00;28.50;;;;;22.51;56.47;101605.47;146615;645;46010;-72
2022/11/09 12:06:38;;;;;;;;;31.50;27.00;;;;;22.67;54.34;101603.97;146612;569;46016;-71
2022/11/09 12:10:29;;;;;;;;;;;;;;;;;;;;;
2022/11/09 12:14:22;;;;;;;;;37.50;32.00;;;;;22.77;53.64;101600.59;146614;622;46016;-71
2022/11/09 12:18:06;;;;;;;;;30.00;27.50;;;;;20.28;54.45;101211.00;146622;613;45020;-71
2022/11/09 12:21:41;;;;;;;;;31.25;29.75;;;;;22.31;54.26;101599.87;146617;611;45039;-72
2022/11/09 12:25:13;;;;;;;;;30.50;29.00;;;;;22.18;55.06;101595.22;146616;579;47010;-71
2022/11/09 12:28:48;;;;;;;;;30.50;27.75;;;;;19.72;53.87;101183.50;146613;599;46014;-72
2022/11/09 12:32:27;;;;;;;;;;;;;;;;;;;;;
2022/11/09 12:35:40;;;;;;;;;32.00;28.00;;;;;21.91;56.72;101589.44;146609;564;46914;-71
2022/11/09 12:38:57;;;;;;;;;27.50;25.75;;;;;21.93;56.84;101589.47;146613;577;46020;-70
2022/11/09 12:41:52;;;;;;;;;33.25;29.75;;;;;21.94;54.97;101586.00;146617;636;47014;-71
2022/11/09 12:45:36;;;;;;;;;34.00;29.25;;;;;21.86;55.76;101587.59;146617;701;46020;-72
2022/11/09 12:48:37;;;;;;;;;35.25;31.00;;;;;21.72;55.88;101587.34;146612;564;46016;-70
2022/11/09 12:51:32;;;;;;;;;31.00;29.50;;;;;21.65;55.85;101586.31;146617;584;46020;-72
2022/11/09 12:54:35;;;;;;;;;30.25;27.75;;;;;21.62;56.83;101578.34;146616;572;46044;-71
2022/11/09 12:57:35;;;;;;;;;30.00;26.75;;;;;21.65;56.56;101585.41;146613;630;46021;-71
2022/11/09 13:01:03;;;;;;;;;28.50;28.00;;;;;20.22;56.05;101332.00;146610;609;46917;-70
2022/11/09 13:04:11;;;;;;;;;31.25;29.00;;;;;21.50;55.98;101586.03;146619;630;46011;-71
2022/11/09 13:07:22;;;;;;;;;32.25;30.00;;;;;21.33;57.21;101587.38;146619;733;46012;-72
2022/11/09 13:11:11;;;;;;;;;34.00;30.00;;;;;18.87;58.21;101176.28;146614;615;46010;-72
2022/11/09 13:14:44;;;;;;;;;29.50;25.50;;;;;21.22;57.41;101588.06;146613;595;46016;-70
2022/11/09 13:18:02;;;;;;;;;30.50;25.75;;;;;18.78;58.04;101168.16;146620;622;46015;-71
2022/11/09 13:20:58;;;;;;;;;32.25;27.50;;;;;21.17;56.10;101592.31;146613;625;46012;-71
2022/11/09 13:24:01;;;;;;;;;31.00;29.00;;;;;21.07;57.04;101590.34;146620;600;46010;-71
2022/11/09 13:27:21;;;;;;;;;30.50;28.00;;;;;20.98;58.08;101592.78;146617;655;46029;-71
2022/11/09 13:31:07;;;;;;;;;30.75;28.75;;;;;20.87;59.69;101596.91;146617;598;46020;-71
2022/11/09 13:34:38;;;;;;;;;28.75;27.00;;;;;18.51;58.45;101199.84;146613;575;46013;-71
2022/11/09 13:38:06;;;;;;;;;34.00;28.75;;;;;18.12;59.20;101166.41;146620;666;45020;-71
2022/11/09 13:41:25;;;;;;;;;32.00;29.00;;;;;20.36;59.03;101578.97;146612;575;46014;-71
2022/11/09 13:44:34;;;;;;;;;31.00;27.50;;;;;20.28;59.18;101600.75;146616;577;47020;-70
2022/11/09 13:47:37;;;;;;;;;34.00;28.50;;;;;20.13;58.91;101599.47;146613;576;47016;-70
2022/11/09 13:50:32;;;;;;;;;34.25;29.75;;;;;19.99;60.42;101594.72;146616;624;46032;-70
2022/11/09 13:54:17;;;;;;;;;33.25;30.00;;;;;17.59;60.81;101193.69;146612;575;46914;-71
2022/11/09 13:57:15;;;;;;;;;36.00;30.50;;;;;19.83;61.06;101593.41;146616;662;46021;-69
2022/11/09 14:00:34;;;;;;;;;33.75;30.50;;;;;17.17;61.09;101154.84;146614;569;46916;-70
2022/11/09 14:03:41;;;;;;;;;35.50;31.25;;;;;19.58;61.59;101590.94;146617;587;46011;-72
2022/11/09 14:06:43;;;;;;;;;39.50;31.50;;;;;19.50;61.30;101595.06;146613;595;46016;-71
2022/11/09 14:10:14;;;;;;;;;36.75;31.00;;;;;19.43;62.25;101591.38;146618;569;46020;-71
2022/11/09 14:13:38;;;;;;;;;38.00;30.25;;;;;19.34;61.67;101597.25;146613;571;46016;-71
2022/11/09 14:17:21;;;;;;;;;37.00;30.50;;;;;16.75;62.20;101149.97;146617;568;46020;-71